createdAt,value
2022-08-03T00:00:49.393Z,9.02
2022-08-03T00:06:04.010Z,10.15
2022-08-03T00:11:07.091Z,6.65
2022-08-03T00:16:10.605Z,6.78
2022-08-03T00:21:12.606Z,5.45
2022-08-03T00:26:14.160Z,7.60
2022-08-03T00:31:15.925Z,5.82
2022-08-03T00:36:17.524Z,5.85
2022-08-03T00:41:19.046Z,6.38
2022-08-03T00:46:22.405Z,6.07
2022-08-03T00:51:24.178Z,5.05
2022-08-03T00:56:26.627Z,7.45
2022-08-03T01:01:30.721Z,6.22
2022-08-03T01:06:43.598Z,5.40
2022-08-03T01:12:00.643Z,4.85
2022-08-03T01:17:23.248Z,5.15
2022-08-03T01:23:03.518Z,5.93
2022-08-03T01:28:17.172Z,6.35
2022-08-03T01:33:18.670Z,5.22
2022-08-03T01:38:33.812Z,8.05
2022-08-03T01:44:28.057Z,8.02
2022-08-03T01:49:09.180Z,4.97
2022-08-03T01:54:13.303Z,7.40
2022-08-03T01:59:18.510Z,4.97
2022-08-03T02:04:22.724Z,6.80
2022-08-03T02:14:28.189Z,7.80
2022-08-03T02:19:35.644Z,5.93
2022-08-03T02:24:38.013Z,5.07
2022-08-03T02:29:41.745Z,6.55
2022-08-03T02:34:47.490Z,6.45
2022-08-03T02:39:53.230Z,5.90
2022-08-03T02:44:58.752Z,5.60
2022-08-03T02:50:02.572Z,7.45
2022-08-03T02:55:08.394Z,6.25
2022-08-03T03:00:10.446Z,7.63
2022-08-03T03:05:54.740Z,7.72
2022-08-03T03:10:37.197Z,8.00
2022-08-03T03:15:39.633Z,6.90
2022-08-03T03:20:41.577Z,8.90
2022-08-03T03:25:43.547Z,8.40
2022-08-03T03:30:52.590Z,8.57
2022-08-03T03:35:54.746Z,10.82
2022-08-03T03:40:56.786Z,9.60
2022-08-03T03:45:58.568Z,10.43
2022-08-03T03:51:01.051Z,12.32
2022-08-03T03:56:03.150Z,13.15
2022-08-03T04:01:04.811Z,10.48
2022-08-03T04:06:25.199Z,10.15
2022-08-03T04:11:31.824Z,9.05
2022-08-03T04:16:43.473Z,12.32
2022-08-03T04:21:50.675Z,11.32
2022-08-03T04:26:53.508Z,13.88
2022-08-03T04:31:58.622Z,9.15
2022-08-03T04:37:05.616Z,10.88
2022-08-03T04:42:09.271Z,8.35
2022-08-03T04:47:11.007Z,14.23
2022-08-03T04:52:12.610Z,11.55
2022-08-03T04:57:22.134Z,9.65
2022-08-03T05:02:25.043Z,9.18
2022-08-03T05:07:26.609Z,18.00
2022-08-03T05:12:37.950Z,10.75
2022-08-03T05:17:39.691Z,8.02
2022-08-03T05:22:41.333Z,10.27
2022-08-03T05:27:42.841Z,7.50
2022-08-03T05:32:44.342Z,7.43
2022-08-03T05:37:54.769Z,7.20
2022-08-03T05:42:57.111Z,7.90
2022-08-03T05:47:59.630Z,8.10
2022-08-03T05:53:01.137Z,7.30
2022-08-03T05:58:03.851Z,9.65
2022-08-03T06:03:05.405Z,7.63
2022-08-03T06:08:06.960Z,6.03
2022-08-03T06:13:08.475Z,7.35
2022-08-03T06:18:09.995Z,10.82
2022-08-03T06:23:15.975Z,9.68
2022-08-03T06:28:51.678Z,9.23
2022-08-03T06:34:31.356Z,7.07
2022-08-03T06:39:02.420Z,6.22
2022-08-03T06:44:04.668Z,5.80
2022-08-03T06:49:07.320Z,14.73
2022-08-03T06:54:08.868Z,6.57
2022-08-03T06:59:10.399Z,5.22
2022-08-03T07:04:31.940Z,7.70
2022-08-03T07:09:33.710Z,9.15
2022-08-03T07:14:35.296Z,7.03
2022-08-03T07:19:36.835Z,8.50
2022-08-03T07:24:38.567Z,5.05
2022-08-03T07:29:40.071Z,8.43
2022-08-03T07:34:41.590Z,4.93
2022-08-03T07:39:43.183Z,9.90
2022-08-03T07:44:44.716Z,7.05
2022-08-03T07:49:46.299Z,9.13
2022-08-03T07:54:47.795Z,6.40
2022-08-03T08:00:01.873Z,6.40
2022-08-03T08:05:05.857Z,6.95
2022-08-03T08:10:10.123Z,6.28
2022-08-03T08:15:11.927Z,5.20
2022-08-03T08:20:18.897Z,7.55
2022-08-03T08:25:31.587Z,5.60
2022-08-03T08:30:33.969Z,5.95
2022-08-03T08:40:38.354Z,7.57
2022-08-03T08:45:41.696Z,6.65
2022-08-03T08:55:59.571Z,7.75
2022-08-03T09:01:01.896Z,6.70
2022-08-03T09:06:04.273Z,5.90
2022-08-03T09:11:08.076Z,7.75
2022-08-03T09:16:15.956Z,7.32
2022-08-03T09:21:33.335Z,6.57
2022-08-03T09:26:37.428Z,5.55
2022-08-03T09:36:46.650Z,5.68
2022-08-03T09:42:04.451Z,11.57
2022-08-03T09:47:06.352Z,10.55
2022-08-03T09:52:37.929Z,6.85
2022-08-03T09:57:37.445Z,5.72
2022-08-03T10:02:40.980Z,15.38
2022-08-03T10:07:48.168Z,5.15
2022-08-03T10:12:50.619Z,5.07
2022-08-03T10:17:52.216Z,12.18
2022-08-03T10:22:54.722Z,14.70
2022-08-03T10:27:58.541Z,9.93
2022-08-03T10:33:49.218Z,10.25
2022-08-03T10:38:46.524Z,7.82
2022-08-03T10:43:56.608Z,8.60
2022-08-03T10:48:58.904Z,8.13
2022-08-03T10:54:01.789Z,8.07
2022-08-03T10:59:03.978Z,9.20
2022-08-03T11:04:10.253Z,13.80
2022-08-03T11:09:13.873Z,10.00
2022-08-03T11:14:24.442Z,6.57
2022-08-03T11:19:57.383Z,8.50
2022-08-03T11:24:59.991Z,6.95
2022-08-03T11:30:20.133Z,8.85
2022-08-03T11:35:36.569Z,6.60
2022-08-03T11:40:50.317Z,7.30
2022-08-03T11:46:03.454Z,9.07
2022-08-03T11:51:07.331Z,7.10
2022-08-03T11:56:12.946Z,6.93
2022-08-03T12:01:21.245Z,5.00
2022-08-03T12:06:24.589Z,7.70
2022-08-03T12:11:26.202Z,10.10
2022-08-03T12:16:28.855Z,6.40
2022-08-03T12:21:31.118Z,7.63
2022-08-03T12:26:58.556Z,7.63
2022-08-03T12:32:01.679Z,8.68
2022-08-03T12:37:22.156Z,5.10
2022-08-03T12:42:35.658Z,7.60
2022-08-03T12:47:51.072Z,6.93
2022-08-03T12:52:52.727Z,8.10
2022-08-03T12:57:54.525Z,8.35
2022-08-03T13:08:29.262Z,5.68
2022-08-03T13:13:39.782Z,8.43
2022-08-03T13:18:41.649Z,8.90
2022-08-03T13:23:43.825Z,4.00
2022-08-03T13:28:45.549Z,7.60
2022-08-03T13:33:47.196Z,2.25
2022-08-03T13:38:48.881Z,4.25
2022-08-03T13:44:06.693Z,4.63
2022-08-03T13:49:12.620Z,4.80
2022-08-03T13:54:14.256Z,3.90
2022-08-03T13:59:15.970Z,4.35
2022-08-03T14:04:22.292Z,4.97
2022-08-03T14:09:24.206Z,5.93
2022-08-03T14:14:25.858Z,6.43
2022-08-03T14:19:28.130Z,5.85
2022-08-03T14:24:29.968Z,3.20
2022-08-03T14:29:31.955Z,2.67
2022-08-03T14:34:33.538Z,4.45
2022-08-03T14:45:01.593Z,2.57
2022-08-03T14:50:31.915Z,4.90
2022-08-03T14:55:37.979Z,12.50
2022-08-03T15:00:40.577Z,8.02
2022-08-03T15:05:42.111Z,5.82
2022-08-03T15:10:45.303Z,11.32
2022-08-03T15:15:48.005Z,3.38
2022-08-03T15:20:50.641Z,3.83
2022-08-03T15:26:04.231Z,8.27
2022-08-03T15:31:18.968Z,6.25
2022-08-03T15:36:21.360Z,4.38
2022-08-03T15:41:22.890Z,3.10
2022-08-03T15:46:29.469Z,7.30
2022-08-03T15:51:31.459Z,6.00
2022-08-03T15:56:33.087Z,4.88
2022-08-03T16:01:34.874Z,6.03
2022-08-03T16:06:36.703Z,6.35
2022-08-03T16:11:38.473Z,2.80
2022-08-03T16:16:40.887Z,6.80
2022-08-03T16:21:48.839Z,5.65
2022-08-03T16:26:51.773Z,6.53
2022-08-03T16:31:53.253Z,9.82
2022-08-03T16:36:54.813Z,7.88
2022-08-03T16:42:01.289Z,3.20
2022-08-03T16:47:03.688Z,9.15
2022-08-03T16:52:07.115Z,7.10
2022-08-03T16:57:08.857Z,6.03
2022-08-03T17:02:21.128Z,7.35
2022-08-03T17:07:29.558Z,9.82
2022-08-03T17:12:31.902Z,5.85
2022-08-03T17:17:47.580Z,8.70
2022-08-03T17:23:19.204Z,5.77
2022-08-03T17:28:58.363Z,8.18
2022-08-03T17:34:02.039Z,5.72
2022-08-03T17:39:07.051Z,9.23
2022-08-03T17:44:15.465Z,10.30
2022-08-03T17:49:23.824Z,7.80
2022-08-03T18:00:28.195Z,10.60
2022-08-03T18:06:10.418Z,11.40
2022-08-03T18:11:03.486Z,15.93
2022-08-03T18:16:15.576Z,7.68
2022-08-03T18:21:23.980Z,10.00
2022-08-03T18:26:25.915Z,9.25
2022-08-03T18:31:59.789Z,12.68
2022-08-03T18:36:49.725Z,10.57
2022-08-03T18:41:51.978Z,10.00
2022-08-03T18:52:20.678Z,12.23
2022-08-03T18:57:34.902Z,15.82
2022-08-03T19:03:12.197Z,14.25
2022-08-03T19:08:33.805Z,13.80
2022-08-03T19:18:55.825Z,22.15
2022-08-03T19:24:05.601Z,10.65
2022-08-03T19:34:18.185Z,15.35
2022-08-03T19:39:20.082Z,12.65
2022-08-03T19:44:29.544Z,17.30
2022-08-03T19:49:59.929Z,16.42
2022-08-03T19:55:03.904Z,14.02
2022-08-03T20:00:09.190Z,15.93
2022-08-03T20:05:15.049Z,16.83
2022-08-03T20:10:18.901Z,19.58
2022-08-03T20:15:22.578Z,15.68
2022-08-03T20:20:36.370Z,17.25
2022-08-03T20:25:57.038Z,18.98
2022-08-03T20:31:01.943Z,15.32
2022-08-03T20:36:04.031Z,20.23
2022-08-03T20:41:05.991Z,19.75
2022-08-03T20:46:29.447Z,24.00
2022-08-03T20:51:50.225Z,18.02
2022-08-03T20:56:51.568Z,20.30
2022-08-03T21:01:53.591Z,14.83
2022-08-03T21:07:14.737Z,17.63
2022-08-03T21:12:27.020Z,16.20
2022-08-03T21:12:55.765Z,9.90
2022-08-03T21:17:41.873Z,21.10
2022-08-03T21:22:49.493Z,15.18
2022-08-03T21:27:52.035Z,16.58
2022-08-03T21:32:54.950Z,16.40
2022-08-03T21:38:15.896Z,19.48
2022-08-03T21:43:20.957Z,18.02
2022-08-03T21:48:25.136Z,16.50
2022-08-03T21:54:02.458Z,21.08
2022-08-03T21:58:55.210Z,18.42
2022-08-03T22:03:58.469Z,12.90
2022-08-03T22:09:00.392Z,15.20
2022-08-03T22:14:02.731Z,15.60
2022-08-03T22:19:04.362Z,16.33
2022-08-03T22:24:07.106Z,11.18
2022-08-03T22:29:08.938Z,15.50
2022-08-03T22:34:10.495Z,14.75
2022-08-03T22:39:12.625Z,16.25
2022-08-03T22:44:28.253Z,12.13
2022-08-03T22:49:31.353Z,11.38
2022-08-03T22:54:33.596Z,17.87
2022-08-03T22:59:42.011Z,13.93
2022-08-03T23:04:45.288Z,19.20
2022-08-03T23:09:48.610Z,16.07
2022-08-03T23:14:57.452Z,16.17
2022-08-03T23:20:06.316Z,19.45
2022-08-03T23:25:08.452Z,15.70
2022-08-03T23:30:11.221Z,25.05
2022-08-03T23:41:02.057Z,21.52
2022-08-03T23:46:04.589Z,22.63
2022-08-03T23:51:13.382Z,26.02
2022-08-03T23:56:17.637Z,15.50
